Terminal Aerodrome Forecast
Issued by NWS

Home | Current Version | Previous Version | Text Only | Print | Product List | Glossary On
Versions: 1 2 3 4 5 6 7 8 9 10 11 12 13 14 15
000
FTUS45 KTFX 290500
TAFHVR
TAF
KHVR 290524Z 2906/3006 05010KT P6SM OVC060
     FM291800 36010KT P6SM OVC060
     FM292200 35008KT P6SM SCT060=

USA.gov is the U.S. government's official web portal to all federal, state and local government web resources and services.